sensor_id;sensor_type;location;lat;lon;timestamp;temperature;humidity
26641;DHT22;14269;47.358;0.724;2023-04-25T00:00:07;12.0;66.0
26641;DHT22;14269;47.358;0.724;2023-04-25T00:02:46;12.0;67.0
26641;DHT22;14269;47.358;0.724;2023-04-25T00:05:18;12.0;67.0
26641;DHT22;14269;47.358;0.724;2023-04-25T00:07:59;12.0;67.0
26641;DHT22;14269;47.358;0.724;2023-04-25T00:10:31;12.0;67.0
26641;DHT22;14269;47.358;0.724;2023-04-25T00:13:03;12.0;67.0
26641;DHT22;14269;47.358;0.724;2023-04-25T00:15:36;11.0;67.0
26641;DHT22;14269;47.358;0.724;2023-04-25T00:18:17;11.0;68.0
26641;DHT22;14269;47.358;0.724;2023-04-25T00:20:58;11.0;68.0
26641;DHT22;14269;47.358;0.724;2023-04-25T00:23:29;12.0;67.0
26641;DHT22;14269;47.358;0.724;2023-04-25T00:26:01;11.0;68.0
26641;DHT22;14269;47.358;0.724;2023-04-25T00:28:33;11.0;67.0
26641;DHT22;14269;47.358;0.724;2023-04-25T00:31:04;11.0;68.0
26641;DHT22;14269;47.358;0.724;2023-04-25T00:33:36;11.0;68.0
26641;DHT22;14269;47.358;0.724;2023-04-25T00:36:08;11.0;68.0
26641;DHT22;14269;47.358;0.724;2023-04-25T00:38:39;11.0;68.0
26641;DHT22;14269;47.358;0.724;2023-04-25T00:41:11;11.0;68.0
26641;DHT22;14269;47.358;0.724;2023-04-25T00:43:44;11.0;69.0
26641;DHT22;14269;47.358;0.724;2023-04-25T00:46:24;11.0;68.0
26641;DHT22;14269;47.358;0.724;2023-04-25T00:48:56;11.0;69.0
26641;DHT22;14269;47.358;0.724;2023-04-25T00:51:28;11.0;69.0
26641;DHT22;14269;47.358;0.724;2023-04-25T00:53:59;11.0;69.0
26641;DHT22;14269;47.358;0.724;2023-04-25T00:56:31;11.0;69.0
26641;DHT22;14269;47.358;0.724;2023-04-25T00:59:03;11.0;69.0
26641;DHT22;14269;47.358;0.724;2023-04-25T01:01:35;11.0;69.0
26641;DHT22;14269;47.358;0.724;2023-04-25T01:04:06;11.0;69.0
26641;DHT22;14269;47.358;0.724;2023-04-25T01:06:38;11.0;69.0
26641;DHT22;14269;47.358;0.724;2023-04-25T01:09:09;11.0;69.0
26641;DHT22;14269;47.358;0.724;2023-04-25T01:11:41;11.0;70.0
26641;DHT22;14269;47.358;0.724;2023-04-25T01:14:12;11.0;69.0
26641;DHT22;14269;47.358;0.724;2023-04-25T01:16:44;11.0;70.0
26641;DHT22;14269;47.358;0.724;2023-04-25T01:19:17;11.0;70.0
26641;DHT22;14269;47.358;0.724;2023-04-25T01:21:58;11.0;70.0
26641;DHT22;14269;47.358;0.724;2023-04-25T01:24:29;11.0;70.0
26641;DHT22;14269;47.358;0.724;2023-04-25T01:27:11;11.0;70.0
26641;DHT22;14269;47.358;0.724;2023-04-25T01:29:42;11.0;70.0
26641;DHT22;14269;47.358;0.724;2023-04-25T01:32:14;11.0;70.0
26641;DHT22;14269;47.358;0.724;2023-04-25T01:34:46;11.0;71.0
26641;DHT22;14269;47.358;0.724;2023-04-25T01:37:17;11.0;70.0
26641;DHT22;14269;47.358;0.724;2023-04-25T01:39:50;11.0;70.0
26641;DHT22;14269;47.358;0.724;2023-04-25T01:42:21;11.0;70.0
26641;DHT22;14269;47.358;0.724;2023-04-25T01:44:53;11.0;70.0
26641;DHT22;14269;47.358;0.724;2023-04-25T01:47:24;11.0;70.0
26641;DHT22;14269;47.358;0.724;2023-04-25T01:49:56;11.0;70.0
26641;DHT22;14269;47.358;0.724;2023-04-25T01:52:27;11.0;71.0
26641;DHT22;14269;47.358;0.724;2023-04-25T01:54:59;11.0;71.0
26641;DHT22;14269;47.358;0.724;2023-04-25T01:57:41;11.0;71.0
26641;DHT22;14269;47.358;0.724;2023-04-25T02:00:13;11.0;71.0
26641;DHT22;14269;47.358;0.724;2023-04-25T02:02:44;11.0;70.0
26641;DHT22;14269;47.358;0.724;2023-04-25T02:05:16;11.0;71.0
26641;DHT22;14269;47.358;0.724;2023-04-25T02:07:47;11.0;71.0
26641;DHT22;14269;47.358;0.724;2023-04-25T02:10:19;11.0;71.0
26641;DHT22;14269;47.358;0.724;2023-04-25T02:12:50;11.0;71.0
26641;DHT22;14269;47.358;0.724;2023-04-25T02:15:22;11.0;71.0
26641;DHT22;14269;47.358;0.724;2023-04-25T02:17:54;11.0;71.0
26641;DHT22;14269;47.358;0.724;2023-04-25T02:20:26;11.0;71.0
26641;DHT22;14269;47.358;0.724;2023-04-25T02:23:07;11.0;71.0
26641;DHT22;14269;47.358;0.724;2023-04-25T02:25:39;11.0;72.0
26641;DHT22;14269;47.358;0.724;2023-04-25T02:28:11;11.0;72.0
26641;DHT22;14269;47.358;0.724;2023-04-25T02:30:42;11.0;72.0
26641;DHT22;14269;47.358;0.724;2023-04-25T02:33:16;11.0;71.0
26641;DHT22;14269;47.358;0.724;2023-04-25T02:35:55;11.0;72.0
26641;DHT22;14269;47.358;0.724;2023-04-25T02:38:27;11.0;72.0
26641;DHT22;14269;47.358;0.724;2023-04-25T02:40:59;11.0;72.0
26641;DHT22;14269;47.358;0.724;2023-04-25T02:43:30;11.0;72.0
26641;DHT22;14269;47.358;0.724;2023-04-25T02:46:03;11.0;72.0
26641;DHT22;14269;47.358;0.724;2023-04-25T02:48:34;11.0;72.0
26641;DHT22;14269;47.358;0.724;2023-04-25T02:51:05;11.0;72.0
26641;DHT22;14269;47.358;0.724;2023-04-25T02:53:37;11.0;72.0
26641;DHT22;14269;47.358;0.724;2023-04-25T02:56:09;11.0;72.0
26641;DHT22;14269;47.358;0.724;2023-04-25T02:58:40;11.0;72.0
26641;DHT22;14269;47.358;0.724;2023-04-25T03:01:12;11.0;72.0
26641;DHT22;14269;47.358;0.724;2023-04-25T03:03:44;11.0;72.0
26641;DHT22;14269;47.358;0.724;2023-04-25T03:06:15;11.0;72.0
26641;DHT22;14269;47.358;0.724;2023-04-25T03:08:47;10.0;72.0
26641;DHT22;14269;47.358;0.724;2023-04-25T03:11:20;10.0;72.0
26641;DHT22;14269;47.358;0.724;2023-04-25T03:14:00;10.0;72.0
26641;DHT22;14269;47.358;0.724;2023-04-25T03:16:32;10.0;72.0
26641;DHT22;14269;47.358;0.724;2023-04-25T03:19:04;10.0;72.0
26641;DHT22;14269;47.358;0.724;2023-04-25T03:21:36;10.0;72.0
26641;DHT22;14269;47.358;0.724;2023-04-25T03:24:07;10.0;72.0
26641;DHT22;14269;47.358;0.724;2023-04-25T03:26:39;10.0;72.0
26641;DHT22;14269;47.358;0.724;2023-04-25T03:29:10;10.0;72.0
26641;DHT22;14269;47.358;0.724;2023-04-25T03:31:42;10.0;72.0
26641;DHT22;14269;47.358;0.724;2023-04-25T03:34:14;10.0;72.0
26641;DHT22;14269;47.358;0.724;2023-04-25T03:36:55;10.0;72.0
26641;DHT22;14269;47.358;0.724;2023-04-25T03:39:27;10.0;72.0
26641;DHT22;14269;47.358;0.724;2023-04-25T03:41:58;10.0;72.0
26641;DHT22;14269;47.358;0.724;2023-04-25T03:44:30;10.0;72.0
26641;DHT22;14269;47.358;0.724;2023-04-25T03:47:02;10.0;72.0
26641;DHT22;14269;47.358;0.724;2023-04-25T03:49:34;10.0;72.0
26641;DHT22;14269;47.358;0.724;2023-04-25T03:52:15;10.0;72.0
26641;DHT22;14269;47.358;0.724;2023-04-25T03:54:47;10.0;72.0
26641;DHT22;14269;47.358;0.724;2023-04-25T03:57:18;10.0;72.0
26641;DHT22;14269;47.358;0.724;2023-04-25T03:59:50;10.0;72.0
26641;DHT22;14269;47.358;0.724;2023-04-25T04:02:22;10.0;72.0
26641;DHT22;14269;47.358;0.724;2023-04-25T04:04:53;10.0;73.0
26641;DHT22;14269;47.358;0.724;2023-04-25T04:07:39;10.0;73.0
26641;DHT22;14269;47.358;0.724;2023-04-25T04:10:17;10.0;73.0
26641;DHT22;14269;47.358;0.724;2023-04-25T04:12:49;10.0;73.0
26641;DHT22;14269;47.358;0.724;2023-04-25T04:15:20;10.0;73.0
26641;DHT22;14269;47.358;0.724;2023-04-25T04:17:52;10.0;74.0
26641;DHT22;14269;47.358;0.724;2023-04-25T04:20:23;10.0;74.0
26641;DHT22;14269;47.358;0.724;2023-04-25T04:22:55;10.0;73.0
26641;DHT22;14269;47.358;0.724;2023-04-25T04:25:27;10.0;73.0
26641;DHT22;14269;47.358;0.724;2023-04-25T04:27:58;10.0;73.0
26641;DHT22;14269;47.358;0.724;2023-04-25T04:30:41;10.0;73.0
26641;DHT22;14269;47.358;0.724;2023-04-25T04:33:23;10.0;73.0
26641;DHT22;14269;47.358;0.724;2023-04-25T04:35:55;10.0;73.0
26641;DHT22;14269;47.358;0.724;2023-04-25T04:38:36;10.0;73.0
26641;DHT22;14269;47.358;0.724;2023-04-25T04:41:07;10.0;73.0
26641;DHT22;14269;47.358;0.724;2023-04-25T04:43:39;10.0;73.0
26641;DHT22;14269;47.358;0.724;2023-04-25T04:46:12;10.0;73.0
26641;DHT22;14269;47.358;0.724;2023-04-25T04:48:53;10.0;73.0
26641;DHT22;14269;47.358;0.724;2023-04-25T04:51:24;10.0;73.0
26641;DHT22;14269;47.358;0.724;2023-04-25T04:53:58;9.0;74.0
26641;DHT22;14269;47.358;0.724;2023-04-25T04:56:37;9.0;74.0
26641;DHT22;14269;47.358;0.724;2023-04-25T04:59:09;10.0;74.0
26641;DHT22;14269;47.358;0.724;2023-04-25T05:01:40;10.0;74.0
26641;DHT22;14269;47.358;0.724;2023-04-25T05:04:12;10.0;74.0
26641;DHT22;14269;47.358;0.724;2023-04-25T05:06:44;10.0;74.0
26641;DHT22;14269;47.358;0.724;2023-04-25T05:09:15;9.0;74.0
26641;DHT22;14269;47.358;0.724;2023-04-25T05:11:47;10.0;75.0
26641;DHT22;14269;47.358;0.724;2023-04-25T05:14:19;10.0;74.0
26641;DHT22;14269;47.358;0.724;2023-04-25T05:16:50;10.0;74.0
26641;DHT22;14269;47.358;0.724;2023-04-25T05:19:23;10.0;74.0
26641;DHT22;14269;47.358;0.724;2023-04-25T05:22:04;10.0;74.0
26641;DHT22;14269;47.358;0.724;2023-04-25T05:24:35;10.0;74.0
26641;DHT22;14269;47.358;0.724;2023-04-25T05:27:07;10.0;74.0
26641;DHT22;14269;47.358;0.724;2023-04-25T05:29:39;10.0;74.0
26641;DHT22;14269;47.358;0.724;2023-04-25T05:32:11;10.0;74.0
26641;DHT22;14269;47.358;0.724;2023-04-25T05:34:43;10.0;73.0
26641;DHT22;14269;47.358;0.724;2023-04-25T05:37:14;10.0;74.0
26641;DHT22;14269;47.358;0.724;2023-04-25T05:39:45;10.0;74.0
26641;DHT22;14269;47.358;0.724;2023-04-25T05:42:17;10.0;74.0
26641;DHT22;14269;47.358;0.724;2023-04-25T05:44:48;10.0;74.0
26641;DHT22;14269;47.358;0.724;2023-04-25T05:47:20;10.0;74.0
26641;DHT22;14269;47.358;0.724;2023-04-25T05:49:52;10.0;74.0
26641;DHT22;14269;47.358;0.724;2023-04-25T05:52:23;10.0;74.0
26641;DHT22;14269;47.358;0.724;2023-04-25T05:54:55;10.0;74.0
26641;DHT22;14269;47.358;0.724;2023-04-25T05:57:27;11.0;74.0
26641;DHT22;14269;47.358;0.724;2023-04-25T05:59:58;11.0;73.0
26641;DHT22;14269;47.358;0.724;2023-04-25T06:02:30;11.0;73.0
26641;DHT22;14269;47.358;0.724;2023-04-25T06:05:03;11.0;73.0
26641;DHT22;14269;47.358;0.724;2023-04-25T06:07:44;11.0;72.0
26641;DHT22;14269;47.358;0.724;2023-04-25T06:10:15;11.0;73.0
26641;DHT22;14269;47.358;0.724;2023-04-25T06:12:47;11.0;73.0
26641;DHT22;14269;47.358;0.724;2023-04-25T06:15:19;11.0;73.0
26641;DHT22;14269;47.358;0.724;2023-04-25T06:17:50;11.0;72.0
26641;DHT22;14269;47.358;0.724;2023-04-25T06:20:24;11.0;72.0
26641;DHT22;14269;47.358;0.724;2023-04-25T06:23:03;11.0;72.0
26641;DHT22;14269;47.358;0.724;2023-04-25T06:25:35;11.0;72.0
26641;DHT22;14269;47.358;0.724;2023-04-25T06:28:07;11.0;71.0
26641;DHT22;14269;47.358;0.724;2023-04-25T06:30:38;11.0;72.0
26641;DHT22;14269;47.358;0.724;2023-04-25T06:33:10;11.0;72.0
26641;DHT22;14269;47.358;0.724;2023-04-25T06:35:42;11.0;71.0
26641;DHT22;14269;47.358;0.724;2023-04-25T06:38:13;11.0;71.0
26641;DHT22;14269;47.358;0.724;2023-04-25T06:40:55;11.0;70.0
26641;DHT22;14269;47.358;0.724;2023-04-25T06:43:27;12.0;70.0
26641;DHT22;14269;47.358;0.724;2023-04-25T06:45:58;12.0;70.0
26641;DHT22;14269;47.358;0.724;2023-04-25T06:48:30;12.0;69.0
26641;DHT22;14269;47.358;0.724;2023-04-25T06:51:02;12.0;70.0
26641;DHT22;14269;47.358;0.724;2023-04-25T06:53:33;12.0;69.0
26641;DHT22;14269;47.358;0.724;2023-04-25T06:56:05;11.0;70.0
26641;DHT22;14269;47.358;0.724;2023-04-25T06:58:37;11.0;70.0
26641;DHT22;14269;47.358;0.724;2023-04-25T07:01:08;12.0;70.0
26641;DHT22;14269;47.358;0.724;2023-04-25T07:03:40;12.0;69.0
26641;DHT22;14269;47.358;0.724;2023-04-25T07:06:12;12.0;69.0
26641;DHT22;14269;47.358;0.724;2023-04-25T07:08:43;12.0;70.0
26641;DHT22;14269;47.358;0.724;2023-04-25T07:11:15;12.0;69.0
26641;DHT22;14269;47.358;0.724;2023-04-25T07:13:46;12.0;69.0
26641;DHT22;14269;47.358;0.724;2023-04-25T07:16:18;12.0;69.0
26641;DHT22;14269;47.358;0.724;2023-04-25T07:18:50;12.0;69.0
26641;DHT22;14269;47.358;0.724;2023-04-25T07:21:21;12.0;69.0
26641;DHT22;14269;47.358;0.724;2023-04-25T07:23:53;12.0;68.0
26641;DHT22;14269;47.358;0.724;2023-04-25T07:26:25;13.0;67.0
26641;DHT22;14269;47.358;0.724;2023-04-25T07:28:56;13.0;68.0
26641;DHT22;14269;47.358;0.724;2023-04-25T07:31:28;13.0;68.0
26641;DHT22;14269;47.358;0.724;2023-04-25T07:34:00;13.0;67.0
26641;DHT22;14269;47.358;0.724;2023-04-25T07:36:31;14.0;66.0
26641;DHT22;14269;47.358;0.724;2023-04-25T07:39:03;14.0;65.0
26641;DHT22;14269;47.358;0.724;2023-04-25T07:41:35;14.0;64.0
26641;DHT22;14269;47.358;0.724;2023-04-25T07:44:06;14.0;63.0
26641;DHT22;14269;47.358;0.724;2023-04-25T07:46:38;14.0;63.0
26641;DHT22;14269;47.358;0.724;2023-04-25T07:49:10;14.0;64.0
26641;DHT22;14269;47.358;0.724;2023-04-25T07:51:43;13.0;64.0
26641;DHT22;14269;47.358;0.724;2023-04-25T07:54:23;14.0;63.0
26641;DHT22;14269;47.358;0.724;2023-04-25T07:56:55;14.0;63.0
26641;DHT22;14269;47.358;0.724;2023-04-25T07:59:26;15.0;62.0
26641;DHT22;14269;47.358;0.724;2023-04-25T08:01:58;15.0;60.0
26641;DHT22;14269;47.358;0.724;2023-04-25T08:04:29;15.0;60.0
26641;DHT22;14269;47.358;0.724;2023-04-25T08:07:01;15.0;58.0
26641;DHT22;14269;47.358;0.724;2023-04-25T08:09:34;14.0;59.0
26641;DHT22;14269;47.358;0.724;2023-04-25T08:12:15;13.0;62.0
26641;DHT22;14269;47.358;0.724;2023-04-25T08:14:46;13.0;62.0
26641;DHT22;14269;47.358;0.724;2023-04-25T08:17:18;14.0;63.0
26641;DHT22;14269;47.358;0.724;2023-04-25T08:19:50;14.0;60.0
26641;DHT22;14269;47.358;0.724;2023-04-25T08:22:21;15.0;60.0
26641;DHT22;14269;47.358;0.724;2023-04-25T08:24:53;14.0;60.0
26641;DHT22;14269;47.358;0.724;2023-04-25T08:27:24;14.0;59.0
26641;DHT22;14269;47.358;0.724;2023-04-25T08:29:57;15.0;57.0
26641;DHT22;14269;47.358;0.724;2023-04-25T08:32:38;15.0;55.0
26641;DHT22;14269;47.358;0.724;2023-04-25T08:35:09;15.0;55.0
26641;DHT22;14269;47.358;0.724;2023-04-25T08:37:41;14.0;58.0
26641;DHT22;14269;47.358;0.724;2023-04-25T08:40:14;14.0;58.0
26641;DHT22;14269;47.358;0.724;2023-04-25T08:42:56;15.0;56.0
26641;DHT22;14269;47.358;0.724;2023-04-25T08:45:38;16.0;55.0
26641;DHT22;14269;47.358;0.724;2023-04-25T08:48:18;16.0;54.0
26641;DHT22;14269;47.358;0.724;2023-04-25T08:50:51;17.0;52.0
26641;DHT22;14269;47.358;0.724;2023-04-25T08:53:32;17.0;52.0
26641;DHT22;14269;47.358;0.724;2023-04-25T08:56:16;17.0;52.0
26641;DHT22;14269;47.358;0.724;2023-04-25T08:58:55;16.0;52.0
26641;DHT22;14269;47.358;0.724;2023-04-25T09:01:27;17.0;53.0
26641;DHT22;14269;47.358;0.724;2023-04-25T09:03:58;17.0;51.0
26641;DHT22;14269;47.358;0.724;2023-04-25T09:06:30;17.0;51.0
26641;DHT22;14269;47.358;0.724;2023-04-25T09:09:12;16.0;51.0
26641;DHT22;14269;47.358;0.724;2023-04-25T09:11:44;16.0;50.0
26641;DHT22;14269;47.358;0.724;2023-04-25T09:14:16;17.0;49.0
26641;DHT22;14269;47.358;0.724;2023-04-25T09:16:59;16.0;50.0
26641;DHT22;14269;47.358;0.724;2023-04-25T09:19:40;16.0;51.0
26641;DHT22;14269;47.358;0.724;2023-04-25T09:22:22;16.0;52.0
26641;DHT22;14269;47.358;0.724;2023-04-25T09:25:04;17.0;49.0
26641;DHT22;14269;47.358;0.724;2023-04-25T09:27:52;17.0;49.0
26641;DHT22;14269;47.358;0.724;2023-04-25T09:30:29;18.0;48.0
26641;DHT22;14269;47.358;0.724;2023-04-25T09:33:09;17.0;48.0
26641;DHT22;14269;47.358;0.724;2023-04-25T09:35:52;17.0;48.0
26641;DHT22;14269;47.358;0.724;2023-04-25T09:38:32;16.0;49.0
26641;DHT22;14269;47.358;0.724;2023-04-25T09:41:12;16.0;49.0
26641;DHT22;14269;47.358;0.724;2023-04-25T09:43:45;16.0;50.0
26641;DHT22;14269;47.358;0.724;2023-04-25T09:46:33;16.0;52.0
26641;DHT22;14269;47.358;0.724;2023-04-25T09:49:08;16.0;52.0
26641;DHT22;14269;47.358;0.724;2023-04-25T09:51:39;15.0;53.0
26641;DHT22;14269;47.358;0.724;2023-04-25T09:54:11;16.0;52.0
26641;DHT22;14269;47.358;0.724;2023-04-25T09:56:43;16.0;49.0
26641;DHT22;14269;47.358;0.724;2023-04-25T09:59:25;17.0;47.0
26641;DHT22;14269;47.358;0.724;2023-04-25T10:01:56;17.0;46.0
26641;DHT22;14269;47.358;0.724;2023-04-25T10:04:28;17.0;47.0
26641;DHT22;14269;47.358;0.724;2023-04-25T10:07:10;17.0;48.0
26641;DHT22;14269;47.358;0.724;2023-04-25T10:09:42;16.0;48.0
26641;DHT22;14269;47.358;0.724;2023-04-25T10:12:23;16.0;49.0
26641;DHT22;14269;47.358;0.724;2023-04-25T10:14:55;16.0;48.0
26641;DHT22;14269;47.358;0.724;2023-04-25T10:17:27;16.0;49.0
26641;DHT22;14269;47.358;0.724;2023-04-25T10:20:10;17.0;46.0
26641;DHT22;14269;47.358;0.724;2023-04-25T10:22:54;17.0;49.0
26641;DHT22;14269;47.358;0.724;2023-04-25T10:25:31;17.0;49.0
26641;DHT22;14269;47.358;0.724;2023-04-25T10:28:03;17.0;46.0
26641;DHT22;14269;47.358;0.724;2023-04-25T10:30:35;16.0;47.0
26641;DHT22;14269;47.358;0.724;2023-04-25T10:33:16;16.0;48.0
26641;DHT22;14269;47.358;0.724;2023-04-25T10:35:49;16.0;48.0
26641;DHT22;14269;47.358;0.724;2023-04-25T10:38:20;17.0;50.0
26641;DHT22;14269;47.358;0.724;2023-04-25T10:41:03;16.0;48.0
26641;DHT22;14269;47.358;0.724;2023-04-25T10:43:44;16.0;48.0
26641;DHT22;14269;47.358;0.724;2023-04-25T10:46:26;16.0;48.0
26641;DHT22;14269;47.358;0.724;2023-04-25T10:49:08;16.0;48.0
26641;DHT22;14269;47.358;0.724;2023-04-25T10:51:48;16.0;49.0
26641;DHT22;14269;47.358;0.724;2023-04-25T10:54:22;16.0;48.0
26641;DHT22;14269;47.358;0.724;2023-04-25T10:57:02;17.0;46.0
26641;DHT22;14269;47.358;0.724;2023-04-25T10:59:34;18.0;44.0
26641;DHT22;14269;47.358;0.724;2023-04-25T11:02:12;17.0;43.0
26641;DHT22;14269;47.358;0.724;2023-04-25T11:04:47;17.0;46.0
26641;DHT22;14269;47.358;0.724;2023-04-25T11:07:26;17.0;43.0
26641;DHT22;14269;47.358;0.724;2023-04-25T11:10:02;17.0;45.0
26641;DHT22;14269;47.358;0.724;2023-04-25T11:12:42;16.0;46.0
26641;DHT22;14269;47.358;0.724;2023-04-25T11:15:14;16.0;45.0
26641;DHT22;14269;47.358;0.724;2023-04-25T11:17:46;16.0;47.0
26641;DHT22;14269;47.358;0.724;2023-04-25T11:20:17;16.0;46.0
26641;DHT22;14269;47.358;0.724;2023-04-25T11:22:49;16.0;44.0
26641;DHT22;14269;47.358;0.724;2023-04-25T11:25:23;16.0;44.0
26641;DHT22;14269;47.358;0.724;2023-04-25T11:28:03;16.0;45.0
26641;DHT22;14269;47.358;0.724;2023-04-25T11:30:48;17.0;46.0
26641;DHT22;14269;47.358;0.724;2023-04-25T11:33:27;17.0;47.0
26641;DHT22;14269;47.358;0.724;2023-04-25T11:36:08;17.0;47.0
26641;DHT22;14269;47.358;0.724;2023-04-25T11:38:50;17.0;45.0
26641;DHT22;14269;47.358;0.724;2023-04-25T11:41:31;16.0;44.0
26641;DHT22;14269;47.358;0.724;2023-04-25T11:44:03;16.0;47.0
26641;DHT22;14269;47.358;0.724;2023-04-25T11:46:34;16.0;46.0
26641;DHT22;14269;47.358;0.724;2023-04-25T11:49:06;17.0;45.0
26641;DHT22;14269;47.358;0.724;2023-04-25T11:51:38;18.0;40.0
26641;DHT22;14269;47.358;0.724;2023-04-25T11:54:19;18.0;40.0
26641;DHT22;14269;47.358;0.724;2023-04-25T11:56:51;17.0;42.0
26641;DHT22;14269;47.358;0.724;2023-04-25T11:59:24;17.0;44.0
26641;DHT22;14269;47.358;0.724;2023-04-25T12:02:06;17.0;46.0
26641;DHT22;14269;47.358;0.724;2023-04-25T12:04:46;17.0;45.0
26641;DHT22;14269;47.358;0.724;2023-04-25T12:07:21;17.0;45.0
26641;DHT22;14269;47.358;0.724;2023-04-25T12:10:03;16.0;47.0
26641;DHT22;14269;47.358;0.724;2023-04-25T12:12:42;17.0;45.0
26641;DHT22;14269;47.358;0.724;2023-04-25T12:15:24;16.0;43.0
26641;DHT22;14269;47.358;0.724;2023-04-25T12:18:06;17.0;44.0
26641;DHT22;14269;47.358;0.724;2023-04-25T12:20:46;18.0;43.0
26641;DHT22;14269;47.358;0.724;2023-04-25T12:23:25;19.0;42.0
26641;DHT22;14269;47.358;0.724;2023-04-25T12:26:02;19.0;37.0
26641;DHT22;14269;47.358;0.724;2023-04-25T12:28:45;18.0;40.0
26641;DHT22;14269;47.358;0.724;2023-04-25T12:31:23;19.0;40.0
26641;DHT22;14269;47.358;0.724;2023-04-25T12:33:56;19.0;41.0
26641;DHT22;14269;47.358;0.724;2023-04-25T12:36:37;19.0;42.0
26641;DHT22;14269;47.358;0.724;2023-04-25T12:39:13;18.0;40.0
26641;DHT22;14269;47.358;0.724;2023-04-25T12:41:52;19.0;41.0
26641;DHT22;14269;47.358;0.724;2023-04-25T12:44:32;19.0;42.0
26641;DHT22;14269;47.358;0.724;2023-04-25T12:47:04;19.0;41.0
26641;DHT22;14269;47.358;0.724;2023-04-25T12:49:35;19.0;39.0
26641;DHT22;14269;47.358;0.724;2023-04-25T12:52:07;18.0;40.0
26641;DHT22;14269;47.358;0.724;2023-04-25T12:54:39;18.0;42.0
26641;DHT22;14269;47.358;0.724;2023-04-25T12:57:11;19.0;44.0
26641;DHT22;14269;47.358;0.724;2023-04-25T12:59:42;19.0;42.0
26641;DHT22;14269;47.358;0.724;2023-04-25T13:02:14;18.0;44.0
26641;DHT22;14269;47.358;0.724;2023-04-25T13:04:45;18.0;45.0
26641;DHT22;14269;47.358;0.724;2023-04-25T13:07:17;18.0;46.0
26641;DHT22;14269;47.358;0.724;2023-04-25T13:09:48;18.0;43.0
26641;DHT22;14269;47.358;0.724;2023-04-25T13:12:20;18.0;43.0
26641;DHT22;14269;47.358;0.724;2023-04-25T13:14:52;18.0;44.0
26641;DHT22;14269;47.358;0.724;2023-04-25T13:17:23;18.0;45.0
26641;DHT22;14269;47.358;0.724;2023-04-25T13:19:55;17.0;44.0
26641;DHT22;14269;47.358;0.724;2023-04-25T13:22:27;17.0;48.0
26641;DHT22;14269;47.358;0.724;2023-04-25T13:24:58;17.0;45.0
26641;DHT22;14269;47.358;0.724;2023-04-25T13:27:32;17.0;46.0
26641;DHT22;14269;47.358;0.724;2023-04-25T13:30:12;17.0;43.0
26641;DHT22;14269;47.358;0.724;2023-04-25T13:32:43;17.0;47.0
26641;DHT22;14269;47.358;0.724;2023-04-25T13:35:16;17.0;47.0
26641;DHT22;14269;47.358;0.724;2023-04-25T13:37:57;16.0;47.0
26641;DHT22;14269;47.358;0.724;2023-04-25T13:40:29;16.0;47.0
26641;DHT22;14269;47.358;0.724;2023-04-25T13:43:01;16.0;49.0
26641;DHT22;14269;47.358;0.724;2023-04-25T13:45:32;16.0;47.0
26641;DHT22;14269;47.358;0.724;2023-04-25T13:48:03;16.0;48.0
26641;DHT22;14269;47.358;0.724;2023-04-25T13:50:35;17.0;47.0
26641;DHT22;14269;47.358;0.724;2023-04-25T13:53:07;17.0;48.0
26641;DHT22;14269;47.358;0.724;2023-04-25T13:55:38;17.0;44.0
26641;DHT22;14269;47.358;0.724;2023-04-25T13:58:10;17.0;46.0
26641;DHT22;14269;47.358;0.724;2023-04-25T14:00:43;17.0;44.0
26641;DHT22;14269;47.358;0.724;2023-04-25T14:03:23;18.0;45.0
26641;DHT22;14269;47.358;0.724;2023-04-25T14:05:55;18.0;44.0
26641;DHT22;14269;47.358;0.724;2023-04-25T14:08:27;18.0;43.0
26641;DHT22;14269;47.358;0.724;2023-04-25T14:11:08;19.0;42.0
26641;DHT22;14269;47.358;0.724;2023-04-25T14:13:40;19.0;40.0
26641;DHT22;14269;47.358;0.724;2023-04-25T14:16:12;18.0;41.0
26641;DHT22;14269;47.358;0.724;2023-04-25T14:18:43;18.0;43.0
26641;DHT22;14269;47.358;0.724;2023-04-25T14:21:15;18.0;45.0
26641;DHT22;14269;47.358;0.724;2023-04-25T14:23:47;18.0;43.0
26641;DHT22;14269;47.358;0.724;2023-04-25T14:26:18;18.0;43.0
26641;DHT22;14269;47.358;0.724;2023-04-25T14:28:51;18.0;45.0
26641;DHT22;14269;47.358;0.724;2023-04-25T14:31:22;19.0;40.0
26641;DHT22;14269;47.358;0.724;2023-04-25T14:33:53;19.0;39.0
26641;DHT22;14269;47.358;0.724;2023-04-25T14:36:26;19.0;40.0
26641;DHT22;14269;47.358;0.724;2023-04-25T14:39:06;19.0;42.0
26641;DHT22;14269;47.358;0.724;2023-04-25T14:41:38;19.0;42.0
26641;DHT22;14269;47.358;0.724;2023-04-25T14:44:10;19.0;41.0
26641;DHT22;14269;47.358;0.724;2023-04-25T14:46:41;18.0;43.0
26641;DHT22;14269;47.358;0.724;2023-04-25T14:49:13;18.0;44.0
26641;DHT22;14269;47.358;0.724;2023-04-25T14:51:45;18.0;45.0
26641;DHT22;14269;47.358;0.724;2023-04-25T14:54:17;17.0;45.0
26641;DHT22;14269;47.358;0.724;2023-04-25T14:56:48;17.0;46.0
26641;DHT22;14269;47.358;0.724;2023-04-25T14:59:20;17.0;46.0
26641;DHT22;14269;47.358;0.724;2023-04-25T15:01:51;17.0;47.0
26641;DHT22;14269;47.358;0.724;2023-04-25T15:04:23;17.0;46.0
26641;DHT22;14269;47.358;0.724;2023-04-25T15:06:55;18.0;45.0
26641;DHT22;14269;47.358;0.724;2023-04-25T15:09:27;18.0;44.0
26641;DHT22;14269;47.358;0.724;2023-04-25T15:11:58;18.0;44.0
26641;DHT22;14269;47.358;0.724;2023-04-25T15:14:30;18.0;44.0
26641;DHT22;14269;47.358;0.724;2023-04-25T15:17:02;18.0;45.0
26641;DHT22;14269;47.358;0.724;2023-04-25T15:19:33;18.0;44.0
26641;DHT22;14269;47.358;0.724;2023-04-25T15:22:06;18.0;42.0
26641;DHT22;14269;47.358;0.724;2023-04-25T15:24:46;18.0;43.0
26641;DHT22;14269;47.358;0.724;2023-04-25T15:27:18;17.0;46.0
26641;DHT22;14269;47.358;0.724;2023-04-25T15:29:50;18.0;45.0
26641;DHT22;14269;47.358;0.724;2023-04-25T15:32:22;17.0;45.0
26641;DHT22;14269;47.358;0.724;2023-04-25T15:35:05;18.0;45.0
26641;DHT22;14269;47.358;0.724;2023-04-25T15:37:45;18.0;41.0
26641;DHT22;14269;47.358;0.724;2023-04-25T15:40:17;18.0;43.0
26641;DHT22;14269;47.358;0.724;2023-04-25T15:42:52;18.0;42.0
26641;DHT22;14269;47.358;0.724;2023-04-25T15:45:31;18.0;42.0
26641;DHT22;14269;47.358;0.724;2023-04-25T15:48:12;17.0;42.0
26641;DHT22;14269;47.358;0.724;2023-04-25T15:50:43;17.0;41.0
26641;DHT22;14269;47.358;0.724;2023-04-25T15:53:15;17.0;41.0
26641;DHT22;14269;47.358;0.724;2023-04-25T15:55:46;17.0;40.0
26641;DHT22;14269;47.358;0.724;2023-04-25T15:58:18;18.0;42.0
26641;DHT22;14269;47.358;0.724;2023-04-25T16:00:50;17.0;40.0
26641;DHT22;14269;47.358;0.724;2023-04-25T16:03:22;17.0;40.0
26641;DHT22;14269;47.358;0.724;2023-04-25T16:05:53;18.0;41.0
26641;DHT22;14269;47.358;0.724;2023-04-25T16:08:25;17.0;42.0
26641;DHT22;14269;47.358;0.724;2023-04-25T16:11:07;17.0;42.0
26641;DHT22;14269;47.358;0.724;2023-04-25T16:13:38;17.0;41.0
26641;DHT22;14269;47.358;0.724;2023-04-25T16:16:10;17.0;41.0
26641;DHT22;14269;47.358;0.724;2023-04-25T16:18:42;17.0;43.0
26641;DHT22;14269;47.358;0.724;2023-04-25T16:21:15;17.0;45.0
26641;DHT22;14269;47.358;0.724;2023-04-25T16:23:55;17.0;44.0
26641;DHT22;14269;47.358;0.724;2023-04-25T16:26:26;17.0;44.0
26641;DHT22;14269;47.358;0.724;2023-04-25T16:28:59;17.0;44.0
26641;DHT22;14269;47.358;0.724;2023-04-25T16:31:40;17.0;45.0
26641;DHT22;14269;47.358;0.724;2023-04-25T16:34:12;17.0;45.0
26641;DHT22;14269;47.358;0.724;2023-04-25T16:36:43;16.0;46.0
26641;DHT22;14269;47.358;0.724;2023-04-25T16:39:15;16.0;46.0
26641;DHT22;14269;47.358;0.724;2023-04-25T16:41:57;16.0;46.0
26641;DHT22;14269;47.358;0.724;2023-04-25T16:44:28;16.0;46.0